Nearby METAR Reports

 

KPBH - Phillips, Wisconsin, USA
Distance from station: SE 13mi, 21km
Updated: 04/25/2019 4:55pm
Clear
Clear
 Wind from N
Wind: N 9 mph , 15 km/h
Temperature: 63°F , 17°C
Dew Point: 25°F , -4°C
Humidity: 24%
Barometer: 29.79 inHg , 1008.8 hPa
Clouds: Clear
Visibility: 10 miles , 16 km
2019/04/25 21:55 KPBH 252155Z AUTO 36008KT 10SM CLR 17/M04 A2979 RMK AO2 T01661036
KRCX - Ladysmith/Rusk, Wisconsin, USA
Distance from station: SW 29mi, 46km
Updated: 04/25/2019 5:15pm
Clear
Clear
 Wind from NNW
Wind: NNW 3 mph , 6 km/h
Temperature: 66°F , 19°C
Dew Point: 30°F , -1°C
Humidity: 26%
Barometer: 29.79 inHg , 1008.8 hPa
Clouds: Clear
Visibility: 10 miles , 16 km
2019/04/25 22:15 KRCX 252215Z AUTO 33003KT 10SM CLR 19/M01 A2979 RMK AO2 T01881015
 
KD25 - Manitowish Water, Wisconsin, USA
Distance from station: ENE 41mi, 66km
Updated: 04/25/2019 4:55pm
Clear
Clear
 Wind from N
Wind: N 6 mph , 9 km/h
Temperature: 61°F , 16°C
Dew Point: 21°F , -6°C
Humidity: 22%
Barometer: 29.79 inHg , 1008.8 hPa
Clouds: Clear
Visibility: 10 miles , 16 km
2019/04/25 21:55 KD25 252155Z AUTO 36005KT 10SM CLR 16/M06 A2979 RMK AO2 T01571062
KHYR - Hayward, Wisconsin, USA
Distance from station: WNW 42mi, 68km
Updated: 04/25/2019 4:53pm
Clear
Clear
 Wind from varies
Wind: varies 5 mph , 7 km/h
Temperature: 66°F , 19°C
Dew Point: 27°F , -3°C
Humidity: 22%
Barometer: 29.77 inHg , 1008.1 hPa
Clouds: Clear
Visibility: 10 miles , 16 km
2019/04/25 21:53 KHYR 252153Z AUTO VRB04KT 10SM CLR 19/M03 A2977 RMK AO2 SLP085 T01941033
 
KARV - Minocqua/Woodruf, Wisconsin, USA
Distance from station: E 44mi, 71km
Updated: 04/25/2019 4:55pm
Clear
Clear
 Wind from N
Wind: N 8 mph , 13 km/h
Temperature: 63°F , 17°C
Dew Point: 27°F , -3°C
Humidity: 25%
Barometer: 29.79 inHg , 1008.8 hPa
Clouds: Clear
Visibility: 10 miles , 16 km
2019/04/25 21:55 KARV 252155Z AUTO 36007KT 10SM CLR 17/M03 A2979 RMK AO2 T01661026
KTKV - Tomahawk Regnl, Wisconsin, USA
Distance from station: ESE 46mi, 74km
Updated: 04/25/2019 4:55pm
Mostly cloudy
Mostly cloudy
 Wind from NW
Wind: NW 9 mph , 15 km/h
Temperature: 61°F , 16°C
Dew Point: 34°F , 1°C
Humidity: 36%
Barometer: 29.79 inHg , 1008.8 hPa
Clouds: Mostly cloudy
Visibility: 10 miles , 16 km
Cloud details: Mostly cloudy 8000 ft
Mostly cloudy 9000 ft
2019/04/25 21:55 KTKV 252155Z AUTO 32008KT 10SM BKN080 BKN090 16/01 A2979 RMK AO2 T01600006